Terminal Aerodrome Forecast
Issued by NWS

Home | Current Version | Previous Version | Text Only | Print | Product List | Glossary On
Versions: 1 2 3 4 5 6 7 8 9 10 11 12 13 14 15
000
FTAK31 PAJN 142219 AAA
TAFAKT
TAF AMD
PAKT 142219Z 1422/1518 14010KT 6SM -SHRA BR OVC020
     FM150200 16009KT P6SM VCSH BKN040
     FM150800 17010KT 6SM -SHRA BR SCT015 BKN025 OVC035
      AMD LTD TO CLD VIS AND WIND 1506/1515=

USA.gov is the U.S. government's official web portal to all federal, state and local government web resources and services.